createdAt,value
2023-10-16T00:00:58.704Z,9.55
2023-10-16T00:03:25.294Z,12.25
2023-10-16T00:05:53.038Z,16.15
2023-10-16T00:08:19.994Z,7.55
2023-10-16T00:10:58.838Z,11.13
2023-10-16T00:13:29.330Z,11.15
2023-10-16T00:15:56.733Z,4.80
2023-10-16T00:18:26.805Z,11.32
2023-10-16T00:20:56.770Z,12.93
2023-10-16T00:23:31.573Z,10.77
2023-10-16T00:25:59.309Z,9.23
2023-10-16T00:28:25.830Z,4.88
2023-10-16T00:30:52.838Z,9.55
2023-10-16T00:33:19.391Z,12.85
2023-10-16T00:35:55.485Z,10.85
2023-10-16T00:38:24.150Z,10.82
2023-10-16T00:41:09.333Z,18.45
2023-10-16T00:43:35.816Z,10.43
2023-10-16T00:46:12.021Z,6.95
2023-10-16T00:48:40.559Z,8.70
2023-10-16T00:51:10.111Z,12.48
2023-10-16T00:53:40.796Z,11.45
2023-10-16T00:56:15.098Z,8.25
2023-10-16T00:58:46.822Z,12.60
2023-10-16T01:01:16.536Z,14.07
2023-10-16T01:03:45.756Z,23.63
2023-10-16T01:06:25.456Z,23.08
2023-10-16T01:08:52.073Z,4.78
2023-10-16T01:11:20.282Z,4.18
2023-10-16T01:13:52.163Z,3.97
2023-10-16T01:16:19.221Z,3.30
2023-10-16T01:18:46.550Z,3.35
2023-10-16T01:21:18.645Z,4.15
2023-10-16T01:23:47.909Z,5.78
2023-10-16T01:26:17.482Z,14.45
2023-10-16T01:28:44.033Z,17.98
2023-10-16T01:31:10.795Z,8.15
2023-10-16T01:33:40.977Z,5.47
2023-10-16T01:36:08.500Z,8.57
2023-10-16T01:38:36.054Z,5.97
2023-10-16T01:41:06.542Z,9.88
2023-10-16T01:43:33.860Z,13.57
2023-10-16T01:46:10.824Z,8.77
2023-10-16T01:48:43.668Z,14.77
2023-10-16T01:51:13.337Z,11.18
2023-10-16T01:53:42.025Z,11.43
2023-10-16T01:56:14.616Z,15.10
2023-10-16T01:58:47.619Z,15.02
2023-10-16T02:01:15.080Z,10.30
2023-10-16T02:03:45.231Z,4.55
2023-10-16T02:06:14.711Z,3.20
2023-10-16T02:08:41.760Z,15.48
2023-10-16T02:11:08.547Z,22.10
2023-10-16T02:13:37.984Z,24.85
2023-10-16T02:16:07.439Z,6.78
2023-10-16T02:18:41.656Z,19.33
2023-10-16T02:21:12.755Z,18.88
2023-10-16T02:23:40.144Z,8.85
2023-10-16T02:26:09.508Z,10.52
2023-10-16T02:28:36.359Z,17.60
2023-10-16T02:31:18.991Z,14.40
2023-10-16T02:33:51.699Z,13.05
2023-10-16T02:36:25.282Z,10.55
2023-10-16T02:38:51.836Z,12.70
2023-10-16T02:41:21.308Z,11.52
2023-10-16T02:43:48.301Z,18.42
2023-10-16T02:46:15.242Z,12.85
2023-10-16T02:48:45.440Z,13.80
2023-10-16T02:51:12.660Z,8.00
2023-10-16T02:53:42.559Z,9.10
2023-10-16T02:56:09.980Z,8.13
2023-10-16T02:58:48.031Z,10.35
2023-10-16T03:01:16.658Z,12.45
2023-10-16T03:03:44.579Z,11.82
2023-10-16T03:06:11.373Z,6.55
2023-10-16T03:08:38.265Z,8.77
2023-10-16T03:11:06.882Z,10.43
2023-10-16T03:13:37.264Z,12.38
2023-10-16T03:16:08.980Z,12.07
2023-10-16T03:18:35.741Z,9.07
2023-10-16T03:21:14.545Z,7.47
2023-10-16T03:23:45.496Z,10.20
2023-10-16T03:26:28.655Z,8.95
2023-10-16T03:29:03.467Z,6.43
2023-10-16T03:31:30.697Z,6.22
2023-10-16T03:33:57.533Z,7.78
2023-10-16T03:36:24.265Z,15.77
2023-10-16T03:38:53.844Z,7.18
2023-10-16T03:41:23.189Z,7.93
2023-10-16T03:43:56.037Z,6.60
2023-10-16T03:46:22.512Z,6.18
2023-10-16T03:48:49.133Z,6.45
2023-10-16T03:51:17.742Z,7.43
2023-10-16T03:53:45.477Z,8.93
2023-10-16T03:56:18.894Z,5.20
2023-10-16T03:58:45.605Z,6.82
2023-10-16T04:01:12.736Z,4.18
2023-10-16T04:03:48.720Z,4.35
2023-10-16T04:06:20.480Z,4.35
2023-10-16T04:08:48.839Z,4.72
2023-10-16T04:11:15.936Z,8.00
2023-10-16T04:13:48.786Z,5.78
2023-10-16T04:16:31.164Z,19.95
2023-10-16T04:19:08.427Z,5.28
2023-10-16T04:21:51.982Z,8.63
2023-10-16T04:24:39.027Z,8.00
2023-10-16T04:27:08.693Z,5.57
2023-10-16T04:29:46.660Z,6.25
2023-10-16T04:32:32.096Z,5.10
2023-10-16T04:35:04.826Z,5.07
2023-10-16T04:37:37.469Z,6.25
2023-10-16T04:40:06.803Z,6.47
2023-10-16T04:42:48.673Z,6.43
2023-10-16T04:45:18.935Z,6.60
2023-10-16T04:47:49.718Z,7.57
2023-10-16T04:50:16.429Z,13.32
2023-10-16T04:53:01.180Z,13.73
2023-10-16T04:55:40.691Z,12.32
2023-10-16T04:58:19.928Z,13.82
2023-10-16T05:01:02.543Z,13.18
2023-10-16T05:03:39.615Z,12.67
2023-10-16T05:06:12.666Z,7.90
2023-10-16T05:08:58.276Z,10.73
2023-10-16T05:11:31.193Z,19.05
2023-10-16T05:14:17.595Z,9.43
2023-10-16T05:17:23.366Z,11.45
2023-10-16T05:20:15.960Z,9.90
2023-10-16T05:22:49.322Z,6.40
2023-10-16T05:25:34.834Z,6.72
2023-10-16T05:28:20.063Z,7.88
2023-10-16T05:31:05.313Z,9.68
2023-10-16T05:33:50.602Z,20.33
2023-10-16T05:36:35.564Z,10.88
2023-10-16T05:39:20.845Z,11.05
2023-10-16T05:42:06.125Z,12.77
2023-10-16T05:44:50.969Z,21.90
2023-10-16T05:47:36.064Z,19.05
2023-10-16T05:50:21.248Z,11.25
2023-10-16T05:53:06.006Z,11.88
2023-10-16T05:55:54.016Z,11.82
2023-10-16T05:58:38.797Z,15.43
2023-10-16T06:01:27.317Z,24.75
2023-10-16T06:04:12.827Z,8.55
2023-10-16T06:07:00.555Z,29.30
2023-10-16T06:09:45.951Z,51.47
2023-10-16T06:12:31.560Z,31.92
2023-10-16T06:14:59.188Z,12.52
2023-10-16T06:17:25.729Z,12.27
2023-10-16T06:19:52.437Z,30.50
2023-10-16T06:22:18.941Z,34.50
2023-10-16T06:24:49.150Z,15.88
2023-10-16T06:27:21.283Z,11.88
2023-10-16T06:29:50.992Z,12.60
2023-10-16T06:32:20.822Z,8.05
2023-10-16T06:34:47.297Z,39.60
2023-10-16T06:37:18.087Z,37.50
2023-10-16T06:39:45.920Z,23.45
2023-10-16T06:42:19.224Z,6.85
2023-10-16T06:44:51.474Z,23.73
2023-10-16T06:47:18.609Z,7.60
2023-10-16T06:49:45.117Z,8.30
2023-10-16T06:52:13.996Z,5.65
2023-10-16T06:54:41.261Z,8.13
2023-10-16T06:57:20.713Z,13.10
2023-10-16T06:59:47.204Z,15.52
2023-10-16T07:02:17.144Z,20.60
2023-10-16T07:04:45.836Z,14.52
2023-10-16T07:07:22.594Z,7.47
2023-10-16T07:09:50.019Z,8.45
2023-10-16T07:12:19.826Z,19.50
2023-10-16T07:14:56.513Z,6.32
2023-10-16T07:17:26.335Z,37.28
2023-10-16T07:19:59.678Z,13.20
2023-10-16T07:22:32.580Z,13.63
2023-10-16T07:25:10.280Z,17.98
2023-10-16T07:27:36.873Z,6.28
2023-10-16T07:30:23.105Z,22.67
2023-10-16T07:32:53.112Z,12.68
2023-10-16T07:35:20.948Z,6.10
2023-10-16T07:37:50.469Z,8.25
2023-10-16T07:40:17.188Z,5.60
2023-10-16T07:42:47.894Z,18.17
2023-10-16T07:45:14.849Z,7.53
2023-10-16T07:47:41.473Z,6.40
2023-10-16T07:50:12.377Z,5.85
2023-10-16T07:52:38.896Z,4.85
2023-10-16T07:55:08.943Z,4.03
2023-10-16T07:57:36.290Z,6.15
2023-10-16T08:00:15.441Z,6.45
2023-10-16T08:02:47.985Z,5.32
2023-10-16T08:05:17.448Z,5.68
2023-10-16T08:07:50.929Z,5.47
2023-10-16T08:10:41.909Z,5.85
2023-10-16T08:13:14.639Z,5.88
2023-10-16T08:15:50.882Z,5.85
2023-10-16T08:18:19.773Z,6.43
2023-10-16T08:21:02.337Z,5.90
2023-10-16T08:23:35.547Z,5.47
2023-10-16T08:26:15.800Z,6.97
2023-10-16T08:28:48.615Z,5.35
2023-10-16T08:31:24.422Z,5.53
2023-10-16T08:33:51.961Z,6.03
2023-10-16T08:36:21.741Z,5.93
2023-10-16T08:38:54.268Z,5.18
2023-10-16T08:41:24.910Z,5.10
2023-10-16T08:43:54.815Z,5.38
2023-10-16T08:46:44.722Z,5.88
2023-10-16T08:49:11.844Z,5.40
2023-10-16T08:51:39.964Z,5.38
2023-10-16T08:54:09.336Z,6.22
2023-10-16T08:56:39.231Z,5.68
2023-10-16T08:59:06.151Z,6.75
2023-10-16T09:01:33.704Z,6.25
2023-10-16T09:04:07.179Z,6.10
2023-10-16T09:06:41.159Z,5.70
2023-10-16T09:09:14.914Z,5.53
2023-10-16T09:11:44.950Z,6.60
2023-10-16T09:14:18.749Z,6.40
2023-10-16T09:16:49.031Z,6.10
2023-10-16T09:19:16.022Z,6.85
2023-10-16T09:21:44.693Z,5.10
2023-10-16T09:24:14.637Z,6.03
2023-10-16T09:26:47.800Z,5.68
2023-10-16T09:29:18.712Z,6.93
2023-10-16T09:31:45.825Z,6.22
2023-10-16T09:34:22.008Z,6.45
2023-10-16T09:36:50.523Z,5.78
2023-10-16T09:39:20.046Z,5.70
2023-10-16T09:41:50.836Z,6.03
2023-10-16T09:44:25.008Z,6.13
2023-10-16T09:46:54.606Z,7.60
2023-10-16T09:49:25.992Z,7.25
2023-10-16T09:52:06.572Z,7.68
2023-10-16T09:54:35.312Z,6.60
2023-10-16T09:57:07.908Z,7.53
2023-10-16T09:59:35.072Z,7.80
2023-10-16T10:02:07.039Z,7.32
2023-10-16T10:04:36.731Z,5.03
2023-10-16T10:07:34.198Z,6.07
2023-10-16T10:10:01.262Z,5.65
2023-10-16T10:12:49.012Z,4.50
2023-10-16T10:15:36.714Z,4.72
2023-10-16T10:18:23.606Z,4.53
2023-10-16T10:20:59.753Z,5.15
2023-10-16T10:23:27.247Z,3.30
2023-10-16T10:25:54.350Z,4.22
2023-10-16T10:28:33.397Z,3.60
2023-10-16T10:31:04.481Z,3.63
2023-10-16T10:33:37.933Z,3.42
2023-10-16T10:36:23.088Z,3.83
2023-10-16T10:38:49.640Z,3.40
2023-10-16T10:41:16.686Z,3.55
2023-10-16T10:43:50.502Z,2.95
2023-10-16T10:46:23.265Z,3.15
2023-10-16T10:48:49.870Z,3.08
2023-10-16T10:51:17.590Z,2.55
2023-10-16T10:53:57.481Z,2.72
2023-10-16T10:56:24.576Z,2.42
2023-10-16T10:58:51.199Z,2.45
2023-10-16T11:01:18.472Z,2.05
2023-10-16T11:03:48.692Z,2.05
2023-10-16T11:06:18.934Z,1.98
2023-10-16T11:08:51.620Z,1.60
2023-10-16T11:11:18.481Z,2.13
2023-10-16T11:13:45.522Z,1.40
2023-10-16T11:16:12.036Z,1.83
2023-10-16T11:18:39.318Z,2.00
2023-10-16T11:21:06.248Z,1.88
2023-10-16T11:23:33.480Z,1.50
2023-10-16T11:26:00.501Z,1.88
2023-10-16T11:28:32.981Z,1.70
2023-10-16T11:31:00.925Z,2.03
2023-10-16T11:33:28.000Z,1.63
2023-10-16T11:36:04.381Z,1.50
2023-10-16T11:38:33.527Z,1.20
2023-10-16T11:41:17.746Z,1.20
2023-10-16T11:43:52.533Z,1.30
2023-10-16T11:46:35.884Z,1.38
2023-10-16T11:51:54.715Z,1.15
2023-10-16T11:54:24.884Z,0.90
2023-10-16T11:56:58.830Z,0.95
2023-10-16T11:59:27.022Z,1.10
2023-10-16T12:04:42.074Z,1.30
2023-10-16T12:07:09.151Z,1.27
2023-10-16T12:09:54.216Z,1.10
2023-10-16T12:12:21.304Z,1.40
2023-10-16T12:14:49.349Z,1.27
2023-10-16T12:17:16.477Z,1.10
2023-10-16T12:19:43.120Z,1.55
2023-10-16T12:22:10.376Z,1.48
2023-10-16T12:24:37.115Z,1.70
2023-10-16T12:27:03.965Z,1.00
2023-10-16T12:29:30.493Z,1.08
2023-10-16T12:31:57.017Z,1.73
2023-10-16T12:34:25.009Z,1.35
2023-10-16T12:36:51.633Z,1.10
2023-10-16T12:39:18.378Z,1.27
2023-10-16T12:41:45.485Z,1.83
2023-10-16T12:44:13.001Z,1.15
2023-10-16T12:46:39.754Z,1.30
2023-10-16T12:49:09.419Z,1.20
2023-10-16T12:51:36.074Z,1.02
2023-10-16T12:54:04.701Z,1.10
2023-10-16T12:56:32.641Z,0.93
2023-10-16T12:59:02.932Z,1.15
2023-10-16T13:01:29.483Z,0.82
2023-10-16T13:04:02.357Z,0.80
2023-10-16T13:06:30.294Z,0.90
2023-10-16T13:08:57.834Z,0.70
2023-10-16T13:11:25.812Z,0.60
2023-10-16T13:13:53.291Z,1.10
2023-10-16T13:16:25.757Z,0.90
2023-10-16T13:18:58.485Z,1.25
2023-10-16T13:21:34.832Z,0.82
2023-10-16T13:24:06.062Z,0.80
2023-10-16T13:26:37.164Z,0.75
2023-10-16T13:29:10.118Z,1.10
2023-10-16T13:31:37.874Z,0.93
2023-10-16T13:34:05.041Z,0.82
2023-10-16T13:36:37.120Z,0.80
2023-10-16T13:39:09.229Z,0.88
2023-10-16T13:41:57.000Z,0.80
2023-10-16T13:44:26.142Z,1.83
2023-10-16T13:46:53.814Z,1.00
2023-10-16T13:49:20.598Z,1.00
2023-10-16T13:51:48.271Z,0.65
2023-10-16T13:54:15.682Z,1.02
2023-10-16T13:56:48.753Z,0.93
2023-10-16T14:01:44.142Z,0.98
2023-10-16T14:04:18.306Z,0.98
2023-10-16T14:06:46.913Z,1.23
2023-10-16T14:09:20.951Z,0.80
2023-10-16T14:11:50.858Z,0.73
2023-10-16T14:14:21.769Z,1.05
2023-10-16T14:16:53.273Z,1.05
2023-10-16T14:19:24.058Z,0.95
2023-10-16T14:21:52.947Z,0.98
2023-10-16T14:24:23.286Z,1.13
2023-10-16T14:26:59.641Z,0.93
2023-10-16T14:29:26.995Z,0.70
2023-10-16T14:31:56.511Z,1.05
2023-10-16T14:34:23.473Z,0.75
2023-10-16T14:36:54.304Z,0.85
2023-10-16T14:39:21.441Z,1.02
2023-10-16T14:41:50.452Z,0.80
2023-10-16T14:44:24.810Z,1.13
2023-10-16T14:46:51.862Z,0.70
2023-10-16T14:49:20.335Z,1.67
2023-10-16T14:51:46.921Z,1.20
2023-10-16T14:54:13.805Z,0.80
2023-10-16T14:56:40.581Z,1.13
2023-10-16T14:59:15.714Z,1.45
2023-10-16T15:01:42.646Z,1.20
2023-10-16T15:04:12.742Z,0.90
2023-10-16T15:06:39.489Z,0.50
2023-10-16T15:09:10.891Z,1.08
2023-10-16T15:11:37.617Z,1.30
2023-10-16T15:14:04.842Z,1.17
2023-10-16T15:16:31.503Z,0.80
2023-10-16T15:18:58.156Z,0.82
2023-10-16T15:21:24.844Z,1.05
2023-10-16T15:23:51.283Z,0.80
2023-10-16T15:26:18.260Z,1.25
2023-10-16T15:28:46.275Z,1.40
2023-10-16T15:31:16.005Z,0.80
2023-10-16T15:33:43.643Z,1.20
2023-10-16T15:36:13.913Z,1.08
2023-10-16T15:38:43.327Z,1.15
2023-10-16T15:41:10.956Z,1.02
2023-10-16T15:43:37.639Z,1.25
2023-10-16T15:46:04.689Z,0.98
2023-10-16T15:48:31.430Z,0.90
2023-10-16T15:50:57.943Z,1.05
2023-10-16T15:53:24.419Z,0.93
2023-10-16T15:55:50.848Z,0.80
2023-10-16T15:58:17.419Z,0.73
2023-10-16T16:00:44.200Z,0.95
2023-10-16T16:03:12.333Z,0.70
2023-10-16T16:05:39.948Z,0.98
2023-10-16T16:08:07.433Z,1.10
2023-10-16T16:10:34.365Z,0.95
2023-10-16T16:13:02.446Z,1.40
2023-10-16T16:15:29.436Z,1.00
2023-10-16T16:17:56.501Z,1.20
2023-10-16T16:20:23.049Z,1.52
2023-10-16T16:22:50.687Z,1.63
2023-10-16T16:25:17.922Z,0.88
2023-10-16T16:27:47.422Z,1.02
2023-10-16T16:28:22.751Z,1.40
2023-10-16T16:30:14.921Z,1.10
2023-10-16T16:32:41.543Z,1.10
2023-10-16T16:35:08.185Z,1.50
2023-10-16T16:37:34.791Z,7.18
2023-10-16T16:40:08.074Z,4.38
2023-10-16T16:42:36.062Z,3.22
2023-10-16T16:45:05.784Z,3.65
2023-10-16T16:47:32.320Z,1.88
2023-10-16T16:50:01.901Z,1.02
2023-10-16T16:52:28.389Z,1.60
2023-10-16T16:54:55.263Z,1.10
2023-10-16T16:57:23.056Z,2.38
2023-10-16T16:59:50.069Z,2.45
2023-10-16T17:02:19.261Z,1.67
2023-10-16T17:04:45.791Z,1.73
2023-10-16T17:07:12.736Z,5.13
2023-10-16T17:09:39.250Z,3.72
2023-10-16T17:12:06.137Z,1.55
2023-10-16T17:14:32.637Z,3.20
2023-10-16T17:16:59.324Z,4.28
2023-10-16T17:19:26.480Z,2.45
2023-10-16T17:21:53.064Z,3.33
2023-10-16T17:24:21.215Z,2.40
2023-10-16T17:26:47.875Z,2.35
2023-10-16T17:29:14.481Z,2.30
2023-10-16T17:31:41.927Z,2.75
2023-10-16T17:34:08.400Z,2.08
2023-10-16T17:36:35.022Z,1.85
2023-10-16T17:39:03.596Z,2.05
2023-10-16T17:41:30.340Z,1.67
2023-10-16T17:43:59.129Z,1.73
2023-10-16T17:46:25.716Z,1.98
2023-10-16T17:48:52.232Z,1.42
2023-10-16T17:51:18.808Z,1.80
2023-10-16T17:53:45.400Z,1.40
2023-10-16T17:56:14.163Z,1.45
2023-10-16T17:58:40.825Z,1.90
2023-10-16T18:01:14.221Z,2.13
2023-10-16T18:03:41.644Z,2.38
2023-10-16T18:06:13.073Z,2.50
2023-10-16T18:08:39.665Z,1.77
2023-10-16T18:11:06.128Z,1.65
2023-10-16T18:13:33.809Z,1.83
2023-10-16T18:16:02.442Z,1.67
2023-10-16T18:18:29.134Z,1.67
2023-10-16T18:20:57.707Z,1.40
2023-10-16T18:23:24.165Z,1.65
2023-10-16T18:25:51.204Z,2.08
2023-10-16T18:28:19.070Z,1.77
2023-10-16T18:30:45.700Z,2.00
2023-10-16T18:33:12.773Z,2.63
2023-10-16T18:35:42.726Z,1.90
2023-10-16T18:38:11.352Z,2.30
2023-10-16T18:40:42.050Z,2.00
2023-10-16T18:43:09.195Z,2.42
2023-10-16T18:45:36.712Z,2.67
2023-10-16T18:48:06.212Z,2.38
2023-10-16T18:50:33.675Z,2.80
2023-10-16T18:53:00.677Z,2.83
2023-10-16T18:55:30.806Z,2.45
2023-10-16T18:57:57.541Z,2.83
2023-10-16T19:00:26.137Z,2.45
2023-10-16T19:02:59.231Z,2.78
2023-10-16T19:05:26.075Z,2.47
2023-10-16T19:07:53.010Z,3.00
2023-10-16T19:10:24.455Z,2.92
2023-10-16T19:12:51.725Z,2.85
2023-10-16T19:15:19.668Z,3.20
2023-10-16T19:17:48.145Z,3.03
2023-10-16T19:20:14.656Z,2.83
2023-10-16T19:22:45.185Z,3.00
2023-10-16T19:25:12.312Z,2.65
2023-10-16T19:27:39.501Z,3.03
2023-10-16T19:30:09.610Z,2.92
2023-10-16T19:32:44.568Z,3.38
2023-10-16T19:35:11.987Z,3.47
2023-10-16T19:37:38.545Z,3.90
2023-10-16T19:40:14.599Z,3.47
2023-10-16T19:42:45.129Z,3.40
2023-10-16T19:45:12.303Z,3.53
2023-10-16T19:47:46.582Z,3.55
2023-10-16T19:50:13.553Z,4.22
2023-10-16T19:52:40.455Z,4.07
2023-10-16T19:55:10.504Z,4.00
2023-10-16T19:57:40.558Z,3.40
2023-10-16T20:00:18.191Z,4.32
2023-10-16T20:02:48.777Z,3.45
2023-10-16T20:05:20.202Z,2.75
2023-10-16T20:08:00.718Z,3.08
2023-10-16T20:10:30.268Z,3.70
2023-10-16T20:12:56.787Z,4.18
2023-10-16T20:15:23.613Z,5.03
2023-10-16T20:17:51.035Z,4.43
2023-10-16T20:20:22.498Z,4.30
2023-10-16T20:22:57.192Z,4.38
2023-10-16T20:25:23.709Z,4.38
2023-10-16T20:27:50.447Z,3.88
2023-10-16T20:30:17.199Z,4.15
2023-10-16T20:32:44.491Z,3.83
2023-10-16T20:35:18.127Z,4.38
2023-10-16T20:37:45.294Z,4.90
2023-10-16T20:40:12.424Z,5.70
2023-10-16T20:42:42.090Z,6.43
2023-10-16T20:45:14.269Z,5.60
2023-10-16T20:47:42.040Z,5.20
2023-10-16T20:50:12.426Z,4.68
2023-10-16T20:52:38.884Z,5.80
2023-10-16T20:55:07.744Z,6.15
2023-10-16T20:57:34.204Z,5.30
2023-10-16T21:00:00.664Z,4.57
2023-10-16T21:02:27.253Z,4.82
2023-10-16T21:04:54.316Z,4.78
2023-10-16T21:07:20.830Z,3.72
2023-10-16T21:09:47.267Z,4.45
2023-10-16T21:12:13.729Z,4.55
2023-10-16T21:14:40.270Z,5.50
2023-10-16T21:17:07.171Z,4.05
2023-10-16T21:19:33.645Z,3.78
2023-10-16T21:22:00.182Z,4.53
2023-10-16T21:24:26.854Z,3.83
2023-10-16T21:26:53.489Z,3.85
2023-10-16T21:29:19.935Z,4.57
2023-10-16T21:31:46.446Z,4.68
2023-10-16T21:34:12.919Z,4.15
2023-10-16T21:36:40.024Z,4.03
2023-10-16T21:39:11.829Z,4.75
2023-10-16T21:41:38.763Z,3.80
2023-10-16T21:44:05.349Z,3.90
2023-10-16T21:46:31.905Z,3.42
2023-10-16T21:48:58.818Z,3.40
2023-10-16T21:51:25.326Z,3.80
2023-10-16T21:53:55.028Z,4.63
2023-10-16T21:56:21.683Z,3.42
2023-10-16T21:58:48.143Z,4.78
2023-10-16T22:01:17.680Z,3.63
2023-10-16T22:03:44.353Z,4.53
2023-10-16T22:06:10.952Z,3.72
2023-10-16T22:08:37.543Z,4.18
2023-10-16T22:11:04.036Z,3.38
2023-10-16T22:13:30.717Z,3.38
2023-10-16T22:15:58.589Z,3.63
2023-10-16T22:18:25.275Z,3.88
2023-10-16T22:21:00.855Z,3.50
2023-10-16T22:23:33.802Z,3.65
2023-10-16T22:26:00.309Z,6.25
2023-10-16T22:28:26.719Z,5.38
2023-10-16T22:30:54.923Z,5.40
2023-10-16T22:33:21.432Z,5.68
2023-10-16T22:35:48.642Z,5.85
2023-10-16T22:38:16.745Z,5.00
2023-10-16T22:40:43.189Z,5.50
2023-10-16T22:43:09.700Z,5.55
2023-10-16T22:45:36.650Z,6.68
2023-10-16T22:48:03.416Z,6.85
2023-10-16T22:50:29.962Z,6.65
2023-10-16T22:52:56.413Z,4.53
2023-10-16T22:55:25.219Z,5.10
2023-10-16T22:57:51.771Z,5.63
2023-10-16T23:00:21.837Z,5.32
2023-10-16T23:02:48.696Z,6.60
2023-10-16T23:05:15.605Z,5.90
2023-10-16T23:07:44.603Z,6.45
2023-10-16T23:10:14.736Z,7.03
2023-10-16T23:12:44.682Z,6.85
2023-10-16T23:15:18.008Z,5.75
2023-10-16T23:17:44.852Z,6.22
2023-10-16T23:20:17.406Z,6.13
2023-10-16T23:22:47.072Z,6.00
2023-10-16T23:25:13.861Z,5.93
2023-10-16T23:27:43.633Z,4.93
2023-10-16T23:30:34.524Z,5.55
2023-10-16T23:33:02.352Z,5.47
2023-10-16T23:35:30.765Z,18.15
2023-10-16T23:37:57.501Z,14.35
2023-10-16T23:40:35.796Z,6.25
2023-10-16T23:43:28.179Z,6.47
2023-10-16T23:45:54.623Z,7.15
2023-10-16T23:48:32.380Z,4.90
2023-10-16T23:51:10.767Z,4.30
2023-10-16T23:53:46.911Z,4.28
2023-10-16T23:56:19.792Z,4.95
2023-10-16T23:58:55.947Z,6.32
